sensor_id;sensor_type;location;lat;lon;timestamp;temperature;humidity
13697;DHT22;6920;50.080;8.226;2023-04-30T00:00:15;12.30;99.90
13697;DHT22;6920;50.080;8.226;2023-04-30T00:02:42;12.30;99.90
13697;DHT22;6920;50.080;8.226;2023-04-30T00:05:09;12.30;99.90
13697;DHT22;6920;50.080;8.226;2023-04-30T00:07:38;12.30;99.90
13697;DHT22;6920;50.080;8.226;2023-04-30T00:10:09;12.20;99.90
13697;DHT22;6920;50.080;8.226;2023-04-30T00:12:37;12.20;99.90
13697;DHT22;6920;50.080;8.226;2023-04-30T00:15:05;12.30;99.90
13697;DHT22;6920;50.080;8.226;2023-04-30T00:17:32;12.30;99.90
13697;DHT22;6920;50.080;8.226;2023-04-30T00:19:59;12.30;99.90
13697;DHT22;6920;50.080;8.226;2023-04-30T00:22:27;12.30;99.90
13697;DHT22;6920;50.080;8.226;2023-04-30T00:24:54;12.40;99.90
13697;DHT22;6920;50.080;8.226;2023-04-30T00:27:21;12.40;99.90
13697;DHT22;6920;50.080;8.226;2023-04-30T00:29:50;12.30;99.90
13697;DHT22;6920;50.080;8.226;2023-04-30T00:32:17;12.40;99.90
13697;DHT22;6920;50.080;8.226;2023-04-30T00:34:44;12.40;99.90
13697;DHT22;6920;50.080;8.226;2023-04-30T00:37:11;12.40;99.90
13697;DHT22;6920;50.080;8.226;2023-04-30T00:39:39;12.40;99.90
13697;DHT22;6920;50.080;8.226;2023-04-30T00:42:06;12.30;99.90
13697;DHT22;6920;50.080;8.226;2023-04-30T00:44:33;12.50;99.90
13697;DHT22;6920;50.080;8.226;2023-04-30T00:47:02;12.50;99.90
13697;DHT22;6920;50.080;8.226;2023-04-30T00:49:30;12.50;99.90
13697;DHT22;6920;50.080;8.226;2023-04-30T00:51:57;12.60;99.90
13697;DHT22;6920;50.080;8.226;2023-04-30T00:54:25;12.60;99.90
13697;DHT22;6920;50.080;8.226;2023-04-30T00:56:53;12.50;99.90
13697;DHT22;6920;50.080;8.226;2023-04-30T00:59:20;12.50;99.90
13697;DHT22;6920;50.080;8.226;2023-04-30T01:01:50;12.60;99.90
13697;DHT22;6920;50.080;8.226;2023-04-30T01:04:20;12.50;99.90
13697;DHT22;6920;50.080;8.226;2023-04-30T01:06:47;12.50;99.90
13697;DHT22;6920;50.080;8.226;2023-04-30T01:09:15;12.50;99.90
13697;DHT22;6920;50.080;8.226;2023-04-30T01:11:51;12.40;99.90
13697;DHT22;6920;50.080;8.226;2023-04-30T01:14:27;12.30;99.90
13697;DHT22;6920;50.080;8.226;2023-04-30T01:17:04;12.30;99.90
13697;DHT22;6920;50.080;8.226;2023-04-30T01:19:41;12.40;99.90
13697;DHT22;6920;50.080;8.226;2023-04-30T01:22:13;12.40;99.90
13697;DHT22;6920;50.080;8.226;2023-04-30T01:24:58;12.50;99.90
13697;DHT22;6920;50.080;8.226;2023-04-30T01:27:33;12.60;99.90
13697;DHT22;6920;50.080;8.226;2023-04-30T01:30:08;12.50;99.90
13697;DHT22;6920;50.080;8.226;2023-04-30T01:32:36;12.50;99.90
13697;DHT22;6920;50.080;8.226;2023-04-30T01:35:03;12.50;99.90
13697;DHT22;6920;50.080;8.226;2023-04-30T01:37:38;12.50;99.90
13697;DHT22;6920;50.080;8.226;2023-04-30T01:40:22;12.40;99.90
13697;DHT22;6920;50.080;8.226;2023-04-30T01:43:00;12.30;99.90
13697;DHT22;6920;50.080;8.226;2023-04-30T01:45:48;12.30;99.90
13697;DHT22;6920;50.080;8.226;2023-04-30T01:48:26;12.20;99.90
13697;DHT22;6920;50.080;8.226;2023-04-30T01:51:07;12.10;99.90
13697;DHT22;6920;50.080;8.226;2023-04-30T01:53:40;12.10;99.90
13697;DHT22;6920;50.080;8.226;2023-04-30T01:56:10;12.00;99.90
13697;DHT22;6920;50.080;8.226;2023-04-30T01:58:39;12.00;99.90
13697;DHT22;6920;50.080;8.226;2023-04-30T02:01:25;12.00;99.90
13697;DHT22;6920;50.080;8.226;2023-04-30T02:03:53;12.00;99.90
13697;DHT22;6920;50.080;8.226;2023-04-30T02:06:21;11.90;99.90
13697;DHT22;6920;50.080;8.226;2023-04-30T02:08:52;11.90;99.90
13697;DHT22;6920;50.080;8.226;2023-04-30T02:11:21;11.90;99.90
13697;DHT22;6920;50.080;8.226;2023-04-30T02:13:49;11.80;99.90
13697;DHT22;6920;50.080;8.226;2023-04-30T02:16:19;11.90;99.90
13697;DHT22;6920;50.080;8.226;2023-04-30T02:18:47;11.90;99.90
13697;DHT22;6920;50.080;8.226;2023-04-30T02:21:14;11.80;99.90
13697;DHT22;6920;50.080;8.226;2023-04-30T02:23:41;11.80;99.90
13697;DHT22;6920;50.080;8.226;2023-04-30T02:26:09;11.80;99.90
13697;DHT22;6920;50.080;8.226;2023-04-30T02:28:37;11.80;99.90
13697;DHT22;6920;50.080;8.226;2023-04-30T02:31:06;11.80;99.90
13697;DHT22;6920;50.080;8.226;2023-04-30T02:33:36;11.80;99.90
13697;DHT22;6920;50.080;8.226;2023-04-30T02:36:05;11.80;99.90
13697;DHT22;6920;50.080;8.226;2023-04-30T02:38:34;11.80;99.90
13697;DHT22;6920;50.080;8.226;2023-04-30T02:41:01;11.80;99.90
13697;DHT22;6920;50.080;8.226;2023-04-30T02:43:30;11.80;99.90
13697;DHT22;6920;50.080;8.226;2023-04-30T02:45:58;11.80;99.90
13697;DHT22;6920;50.080;8.226;2023-04-30T02:48:25;11.80;99.90
13697;DHT22;6920;50.080;8.226;2023-04-30T02:50:55;11.80;99.90
13697;DHT22;6920;50.080;8.226;2023-04-30T02:53:22;11.80;99.90
13697;DHT22;6920;50.080;8.226;2023-04-30T02:55:51;11.80;99.90
13697;DHT22;6920;50.080;8.226;2023-04-30T02:58:18;11.80;99.90
13697;DHT22;6920;50.080;8.226;2023-04-30T03:00:46;11.80;99.90
13697;DHT22;6920;50.080;8.226;2023-04-30T03:03:14;11.70;99.90
13697;DHT22;6920;50.080;8.226;2023-04-30T03:05:41;11.80;99.90
13697;DHT22;6920;50.080;8.226;2023-04-30T03:08:12;11.70;99.90
13697;DHT22;6920;50.080;8.226;2023-04-30T03:10:39;11.70;99.90
13697;DHT22;6920;50.080;8.226;2023-04-30T03:13:07;11.70;99.90
13697;DHT22;6920;50.080;8.226;2023-04-30T03:15:36;11.70;99.90
13697;DHT22;6920;50.080;8.226;2023-04-30T03:18:05;11.60;99.90
13697;DHT22;6920;50.080;8.226;2023-04-30T03:20:33;11.60;99.90
13697;DHT22;6920;50.080;8.226;2023-04-30T03:23:00;11.60;99.90
13697;DHT22;6920;50.080;8.226;2023-04-30T03:25:30;11.50;99.90
13697;DHT22;6920;50.080;8.226;2023-04-30T03:27:58;11.50;99.90
13697;DHT22;6920;50.080;8.226;2023-04-30T03:32:53;11.50;99.90
13697;DHT22;6920;50.080;8.226;2023-04-30T03:35:20;11.40;99.90
13697;DHT22;6920;50.080;8.226;2023-04-30T03:37:48;11.50;99.90
13697;DHT22;6920;50.080;8.226;2023-04-30T03:40:15;11.40;99.90
13697;DHT22;6920;50.080;8.226;2023-04-30T03:42:44;11.50;99.90
13697;DHT22;6920;50.080;8.226;2023-04-30T03:45:13;11.40;99.90
13697;DHT22;6920;50.080;8.226;2023-04-30T03:47:42;11.40;99.90
13697;DHT22;6920;50.080;8.226;2023-04-30T03:50:10;11.40;99.90
13697;DHT22;6920;50.080;8.226;2023-04-30T03:52:38;11.40;99.90
13697;DHT22;6920;50.080;8.226;2023-04-30T03:55:05;11.40;99.90
13697;DHT22;6920;50.080;8.226;2023-04-30T04:00:05;11.50;99.90
13697;DHT22;6920;50.080;8.226;2023-04-30T04:05:01;11.50;99.90
13697;DHT22;6920;50.080;8.226;2023-04-30T04:09:57;11.50;99.90
13697;DHT22;6920;50.080;8.226;2023-04-30T04:12:26;11.50;99.90
13697;DHT22;6920;50.080;8.226;2023-04-30T04:14:54;11.50;99.90
13697;DHT22;6920;50.080;8.226;2023-04-30T04:17:29;11.60;99.90
13697;DHT22;6920;50.080;8.226;2023-04-30T04:19:57;11.60;99.90
13697;DHT22;6920;50.080;8.226;2023-04-30T04:22:26;11.60;99.90
13697;DHT22;6920;50.080;8.226;2023-04-30T04:24:55;11.50;99.90
13697;DHT22;6920;50.080;8.226;2023-04-30T04:27:23;13.10;99.90
13697;DHT22;6920;50.080;8.226;2023-04-30T04:32:17;11.60;99.90
13697;DHT22;6920;50.080;8.226;2023-04-30T04:34:47;11.60;99.90
13697;DHT22;6920;50.080;8.226;2023-04-30T04:37:15;11.60;99.90
13697;DHT22;6920;50.080;8.226;2023-04-30T04:39:42;11.70;99.90
13697;DHT22;6920;50.080;8.226;2023-04-30T04:42:10;11.60;99.90
13697;DHT22;6920;50.080;8.226;2023-04-30T04:44:37;11.50;99.90
13697;DHT22;6920;50.080;8.226;2023-04-30T04:47:05;11.70;99.90
13697;DHT22;6920;50.080;8.226;2023-04-30T04:52:03;11.70;99.90
13697;DHT22;6920;50.080;8.226;2023-04-30T04:54:31;11.70;99.90
13697;DHT22;6920;50.080;8.226;2023-04-30T04:57:00;11.80;99.90
13697;DHT22;6920;50.080;8.226;2023-04-30T04:59:27;11.80;99.90
13697;DHT22;6920;50.080;8.226;2023-04-30T05:01:54;11.80;99.90
13697;DHT22;6920;50.080;8.226;2023-04-30T05:04:22;11.80;99.90
13697;DHT22;6920;50.080;8.226;2023-04-30T05:06:49;11.90;99.90
13697;DHT22;6920;50.080;8.226;2023-04-30T05:09:19;11.80;99.90
13697;DHT22;6920;50.080;8.226;2023-04-30T05:11:46;11.80;99.90
13697;DHT22;6920;50.080;8.226;2023-04-30T05:14:15;11.90;99.90
13697;DHT22;6920;50.080;8.226;2023-04-30T05:16:42;11.90;99.90
13697;DHT22;6920;50.080;8.226;2023-04-30T05:19:12;11.80;99.90
13697;DHT22;6920;50.080;8.226;2023-04-30T05:21:39;11.90;99.90
13697;DHT22;6920;50.080;8.226;2023-04-30T05:24:08;11.90;99.90
13697;DHT22;6920;50.080;8.226;2023-04-30T05:26:38;11.90;99.90
13697;DHT22;6920;50.080;8.226;2023-04-30T05:29:05;12.00;99.90
13697;DHT22;6920;50.080;8.226;2023-04-30T05:31:32;12.10;99.90
13697;DHT22;6920;50.080;8.226;2023-04-30T05:34:00;12.00;99.90
13697;DHT22;6920;50.080;8.226;2023-04-30T05:36:28;12.10;99.90
13697;DHT22;6920;50.080;8.226;2023-04-30T05:38:55;12.10;99.90
13697;DHT22;6920;50.080;8.226;2023-04-30T05:41:23;12.00;99.90
13697;DHT22;6920;50.080;8.226;2023-04-30T05:43:53;12.00;99.90
13697;DHT22;6920;50.080;8.226;2023-04-30T05:46:21;12.00;99.90
13697;DHT22;6920;50.080;8.226;2023-04-30T05:48:48;12.00;99.90
13697;DHT22;6920;50.080;8.226;2023-04-30T05:51:17;12.00;99.90
13697;DHT22;6920;50.080;8.226;2023-04-30T05:53:45;12.00;99.90
13697;DHT22;6920;50.080;8.226;2023-04-30T05:56:12;12.00;99.90
13697;DHT22;6920;50.080;8.226;2023-04-30T05:58:39;12.10;99.90
13697;DHT22;6920;50.080;8.226;2023-04-30T06:01:13;12.20;99.90
13697;DHT22;6920;50.080;8.226;2023-04-30T06:03:40;12.20;99.90
13697;DHT22;6920;50.080;8.226;2023-04-30T06:08:34;12.30;99.90
13697;DHT22;6920;50.080;8.226;2023-04-30T06:13:32;12.50;99.90
13697;DHT22;6920;50.080;8.226;2023-04-30T06:16:00;12.60;99.90
13697;DHT22;6920;50.080;8.226;2023-04-30T06:18:28;12.70;99.90
13697;DHT22;6920;50.080;8.226;2023-04-30T06:20:56;12.70;99.90
13697;DHT22;6920;50.080;8.226;2023-04-30T06:23:23;12.70;99.90
13697;DHT22;6920;50.080;8.226;2023-04-30T06:25:50;12.90;99.90
13697;DHT22;6920;50.080;8.226;2023-04-30T06:28:17;13.00;99.90
13697;DHT22;6920;50.080;8.226;2023-04-30T06:30:50;13.10;99.90
13697;DHT22;6920;50.080;8.226;2023-04-30T06:33:19;13.20;99.90
13697;DHT22;6920;50.080;8.226;2023-04-30T06:35:48;13.30;99.90
13697;DHT22;6920;50.080;8.226;2023-04-30T06:38:19;13.40;99.90
13697;DHT22;6920;50.080;8.226;2023-04-30T06:40:47;13.60;99.90
13697;DHT22;6920;50.080;8.226;2023-04-30T06:43:16;13.70;99.90
13697;DHT22;6920;50.080;8.226;2023-04-30T06:45:43;13.80;99.90
13697;DHT22;6920;50.080;8.226;2023-04-30T06:48:12;13.80;99.90
13697;DHT22;6920;50.080;8.226;2023-04-30T06:50:41;13.90;99.90
13697;DHT22;6920;50.080;8.226;2023-04-30T06:53:13;13.80;99.90
13697;DHT22;6920;50.080;8.226;2023-04-30T06:55:44;14.00;99.90
13697;DHT22;6920;50.080;8.226;2023-04-30T06:58:12;14.20;99.90
13697;DHT22;6920;50.080;8.226;2023-04-30T07:00:41;14.50;99.90
13697;DHT22;6920;50.080;8.226;2023-04-30T07:03:09;14.80;99.90
13697;DHT22;6920;50.080;8.226;2023-04-30T07:05:45;15.10;99.90
13697;DHT22;6920;50.080;8.226;2023-04-30T07:08:17;15.10;99.90
13697;DHT22;6920;50.080;8.226;2023-04-30T07:10:45;15.30;99.90
13697;DHT22;6920;50.080;8.226;2023-04-30T07:15:41;15.60;99.90
13697;DHT22;6920;50.080;8.226;2023-04-30T07:18:10;15.40;99.90
13697;DHT22;6920;50.080;8.226;2023-04-30T07:20:37;15.60;99.90
13697;DHT22;6920;50.080;8.226;2023-04-30T07:23:04;15.70;99.90
13697;DHT22;6920;50.080;8.226;2023-04-30T07:25:33;15.30;99.90
13697;DHT22;6920;50.080;8.226;2023-04-30T07:28:01;16.00;99.90
13697;DHT22;6920;50.080;8.226;2023-04-30T07:32:55;16.60;99.90
13697;DHT22;6920;50.080;8.226;2023-04-30T07:35:23;17.00;99.90
13697;DHT22;6920;50.080;8.226;2023-04-30T07:37:51;16.70;99.90
13697;DHT22;6920;50.080;8.226;2023-04-30T07:42:48;16.40;99.90
13697;DHT22;6920;50.080;8.226;2023-04-30T07:45:16;16.20;99.90
13697;DHT22;6920;50.080;8.226;2023-04-30T07:47:43;16.20;99.90
13697;DHT22;6920;50.080;8.226;2023-04-30T07:50:10;16.60;99.90
13697;DHT22;6920;50.080;8.226;2023-04-30T07:52:39;16.70;99.90
13697;DHT22;6920;50.080;8.226;2023-04-30T07:55:07;16.70;99.90
13697;DHT22;6920;50.080;8.226;2023-04-30T07:57:36;16.40;99.90
13697;DHT22;6920;50.080;8.226;2023-04-30T08:00:06;17.00;99.90
13697;DHT22;6920;50.080;8.226;2023-04-30T08:02:33;16.80;99.90
13697;DHT22;6920;50.080;8.226;2023-04-30T08:07:31;17.10;99.90
13697;DHT22;6920;50.080;8.226;2023-04-30T08:09:58;17.40;99.90
13697;DHT22;6920;50.080;8.226;2023-04-30T08:12:28;17.50;99.90
13697;DHT22;6920;50.080;8.226;2023-04-30T08:14:59;17.80;99.90
13697;DHT22;6920;50.080;8.226;2023-04-30T08:17:28;18.10;99.70
13697;DHT22;6920;50.080;8.226;2023-04-30T08:19:56;18.00;99.40
13697;DHT22;6920;50.080;8.226;2023-04-30T08:22:25;17.60;99.00
13697;DHT22;6920;50.080;8.226;2023-04-30T08:24:52;17.70;99.40
13697;DHT22;6920;50.080;8.226;2023-04-30T08:27:20;18.00;98.90
13697;DHT22;6920;50.080;8.226;2023-04-30T08:32:18;18.10;98.70
13697;DHT22;6920;50.080;8.226;2023-04-30T08:34:47;18.20;99.00
13697;DHT22;6920;50.080;8.226;2023-04-30T08:37:14;18.20;98.60
13697;DHT22;6920;50.080;8.226;2023-04-30T08:39:43;18.30;98.80
13697;DHT22;6920;50.080;8.226;2023-04-30T08:42:13;18.70;97.70
13697;DHT22;6920;50.080;8.226;2023-04-30T08:44:40;18.90;97.70
13697;DHT22;6920;50.080;8.226;2023-04-30T08:47:09;18.40;97.60
13697;DHT22;6920;50.080;8.226;2023-04-30T08:49:39;18.60;97.90
13697;DHT22;6920;50.080;8.226;2023-04-30T08:52:08;18.90;97.40
13697;DHT22;6920;50.080;8.226;2023-04-30T08:54:36;19.40;96.80
13697;DHT22;6920;50.080;8.226;2023-04-30T08:57:05;19.20;96.70
13697;DHT22;6920;50.080;8.226;2023-04-30T08:59:44;19.00;97.20
13697;DHT22;6920;50.080;8.226;2023-04-30T09:02:13;19.00;97.10
13697;DHT22;6920;50.080;8.226;2023-04-30T09:04:41;18.50;96.80
13697;DHT22;6920;50.080;8.226;2023-04-30T09:07:12;18.90;96.90
13697;DHT22;6920;50.080;8.226;2023-04-30T09:09:40;19.10;96.90
13697;DHT22;6920;50.080;8.226;2023-04-30T09:12:11;19.10;96.40
13697;DHT22;6920;50.080;8.226;2023-04-30T09:14:41;19.30;96.30
13697;DHT22;6920;50.080;8.226;2023-04-30T09:17:24;19.60;96.20
13697;DHT22;6920;50.080;8.226;2023-04-30T09:19:53;19.60;96.50
13697;DHT22;6920;50.080;8.226;2023-04-30T09:22:24;20.00;94.70
13697;DHT22;6920;50.080;8.226;2023-04-30T09:24:51;19.80;95.20
13697;DHT22;6920;50.080;8.226;2023-04-30T09:27:19;19.90;95.30
13697;DHT22;6920;50.080;8.226;2023-04-30T09:29:49;20.30;95.40
13697;DHT22;6920;50.080;8.226;2023-04-30T09:34:46;19.90;94.20
13697;DHT22;6920;50.080;8.226;2023-04-30T09:37:13;19.40;95.20
13697;DHT22;6920;50.080;8.226;2023-04-30T09:39:53;19.90;94.70
13697;DHT22;6920;50.080;8.226;2023-04-30T09:42:23;19.80;94.30
13697;DHT22;6920;50.080;8.226;2023-04-30T09:44:53;19.80;94.70
13697;DHT22;6920;50.080;8.226;2023-04-30T09:47:22;19.20;94.70
13697;DHT22;6920;50.080;8.226;2023-04-30T09:49:52;19.90;95.00
13697;DHT22;6920;50.080;8.226;2023-04-30T09:52:22;20.10;94.20
13697;DHT22;6920;50.080;8.226;2023-04-30T09:54:53;20.20;93.90
13697;DHT22;6920;50.080;8.226;2023-04-30T09:57:23;19.90;93.70
13697;DHT22;6920;50.080;8.226;2023-04-30T09:59:52;20.10;94.30
13697;DHT22;6920;50.080;8.226;2023-04-30T10:02:20;19.70;94.70
13697;DHT22;6920;50.080;8.226;2023-04-30T10:04:55;20.60;93.30
13697;DHT22;6920;50.080;8.226;2023-04-30T10:07:33;20.10;93.60
13697;DHT22;6920;50.080;8.226;2023-04-30T10:10:09;20.50;93.60
13697;DHT22;6920;50.080;8.226;2023-04-30T10:12:44;20.80;92.60
13697;DHT22;6920;50.080;8.226;2023-04-30T10:15:16;20.20;92.60
13697;DHT22;6920;50.080;8.226;2023-04-30T10:17:48;20.40;92.50
13697;DHT22;6920;50.080;8.226;2023-04-30T10:20:17;20.20;92.70
13697;DHT22;6920;50.080;8.226;2023-04-30T10:22:47;20.30;92.30
13697;DHT22;6920;50.080;8.226;2023-04-30T10:25:16;19.60;93.40
13697;DHT22;6920;50.080;8.226;2023-04-30T10:27:45;20.60;92.80
13697;DHT22;6920;50.080;8.226;2023-04-30T10:30:13;20.80;91.30
13697;DHT22;6920;50.080;8.226;2023-04-30T10:32:47;21.00;91.40
13697;DHT22;6920;50.080;8.226;2023-04-30T10:35:27;20.80;91.60
13697;DHT22;6920;50.080;8.226;2023-04-30T10:38:02;20.60;91.30
13697;DHT22;6920;50.080;8.226;2023-04-30T10:40:36;19.60;91.80
13697;DHT22;6920;50.080;8.226;2023-04-30T10:43:03;20.20;91.80
13697;DHT22;6920;50.080;8.226;2023-04-30T10:45:34;20.60;91.80
13697;DHT22;6920;50.080;8.226;2023-04-30T10:48:03;20.70;91.20
13697;DHT22;6920;50.080;8.226;2023-04-30T10:50:30;21.00;91.70
13697;DHT22;6920;50.080;8.226;2023-04-30T10:53:04;20.60;88.10
13697;DHT22;6920;50.080;8.226;2023-04-30T10:55:32;20.50;87.60
13697;DHT22;6920;50.080;8.226;2023-04-30T10:58:22;20.70;89.50
13697;DHT22;6920;50.080;8.226;2023-04-30T11:01:01;20.60;90.70
13697;DHT22;6920;50.080;8.226;2023-04-30T11:03:33;21.10;90.30
13697;DHT22;6920;50.080;8.226;2023-04-30T11:06:08;21.20;89.50
13697;DHT22;6920;50.080;8.226;2023-04-30T11:08:38;20.40;88.30
13697;DHT22;6920;50.080;8.226;2023-04-30T11:11:08;20.90;89.90
13697;DHT22;6920;50.080;8.226;2023-04-30T11:13:41;21.00;88.70
13697;DHT22;6920;50.080;8.226;2023-04-30T11:16:13;21.30;89.50
13697;DHT22;6920;50.080;8.226;2023-04-30T11:18:44;21.60;89.50
13697;DHT22;6920;50.080;8.226;2023-04-30T11:21:12;21.70;89.30
13697;DHT22;6920;50.080;8.226;2023-04-30T11:23:40;21.50;88.40
13697;DHT22;6920;50.080;8.226;2023-04-30T11:26:09;20.90;90.10
13697;DHT22;6920;50.080;8.226;2023-04-30T11:28:37;20.30;91.20
13697;DHT22;6920;50.080;8.226;2023-04-30T11:31:06;20.70;91.00
13697;DHT22;6920;50.080;8.226;2023-04-30T11:33:34;21.60;91.10
13697;DHT22;6920;50.080;8.226;2023-04-30T11:36:01;21.50;90.70
13697;DHT22;6920;50.080;8.226;2023-04-30T11:38:35;21.20;91.00
13697;DHT22;6920;50.080;8.226;2023-04-30T11:41:03;20.80;90.70
13697;DHT22;6920;50.080;8.226;2023-04-30T11:43:32;21.50;91.30
13697;DHT22;6920;50.080;8.226;2023-04-30T11:46:06;21.50;91.40
13697;DHT22;6920;50.080;8.226;2023-04-30T11:48:35;21.40;90.70
13697;DHT22;6920;50.080;8.226;2023-04-30T11:51:03;21.30;90.70
13697;DHT22;6920;50.080;8.226;2023-04-30T11:53:33;21.90;90.70
13697;DHT22;6920;50.080;8.226;2023-04-30T11:56:03;21.50;90.60
13697;DHT22;6920;50.080;8.226;2023-04-30T11:58:35;20.30;91.30
13697;DHT22;6920;50.080;8.226;2023-04-30T12:01:07;20.50;91.00
13697;DHT22;6920;50.080;8.226;2023-04-30T12:03:42;21.30;91.50
13697;DHT22;6920;50.080;8.226;2023-04-30T12:06:15;21.50;91.50
13697;DHT22;6920;50.080;8.226;2023-04-30T12:08:47;21.60;90.40
13697;DHT22;6920;50.080;8.226;2023-04-30T12:11:19;21.30;90.70
13697;DHT22;6920;50.080;8.226;2023-04-30T12:13:51;21.20;91.20
13697;DHT22;6920;50.080;8.226;2023-04-30T12:16:22;21.50;91.00
13697;DHT22;6920;50.080;8.226;2023-04-30T12:18:49;22.00;90.60
13697;DHT22;6920;50.080;8.226;2023-04-30T12:21:20;21.10;90.90
13697;DHT22;6920;50.080;8.226;2023-04-30T12:23:48;21.80;91.40
13697;DHT22;6920;50.080;8.226;2023-04-30T12:26:17;21.10;91.00
13697;DHT22;6920;50.080;8.226;2023-04-30T12:28:46;20.80;91.20
13697;DHT22;6920;50.080;8.226;2023-04-30T12:31:17;21.20;91.30
13697;DHT22;6920;50.080;8.226;2023-04-30T12:33:56;20.80;90.60
13697;DHT22;6920;50.080;8.226;2023-04-30T12:36:34;21.10;90.80
13697;DHT22;6920;50.080;8.226;2023-04-30T12:39:10;21.40;91.20
13697;DHT22;6920;50.080;8.226;2023-04-30T12:41:39;21.50;90.40
13697;DHT22;6920;50.080;8.226;2023-04-30T12:44:19;21.60;90.80
13697;DHT22;6920;50.080;8.226;2023-04-30T12:46:48;21.10;91.10
13697;DHT22;6920;50.080;8.226;2023-04-30T12:49:24;21.80;91.10
13697;DHT22;6920;50.080;8.226;2023-04-30T12:51:56;21.30;90.10
13697;DHT22;6920;50.080;8.226;2023-04-30T12:54:25;21.30;90.20
13697;DHT22;6920;50.080;8.226;2023-04-30T12:57:00;21.40;91.10
13697;DHT22;6920;50.080;8.226;2023-04-30T12:59:30;22.20;89.70
13697;DHT22;6920;50.080;8.226;2023-04-30T13:02:09;21.60;90.40
13697;DHT22;6920;50.080;8.226;2023-04-30T13:04:39;22.00;89.20
13697;DHT22;6920;50.080;8.226;2023-04-30T13:07:08;21.90;89.40
13697;DHT22;6920;50.080;8.226;2023-04-30T13:09:36;22.00;89.10
13697;DHT22;6920;50.080;8.226;2023-04-30T13:12:06;22.30;89.10
13697;DHT22;6920;50.080;8.226;2023-04-30T13:17:01;22.20;90.00
13697;DHT22;6920;50.080;8.226;2023-04-30T13:19:30;21.80;88.40
13697;DHT22;6920;50.080;8.226;2023-04-30T13:21:59;22.00;87.90
13697;DHT22;6920;50.080;8.226;2023-04-30T13:24:28;21.90;90.30
13697;DHT22;6920;50.080;8.226;2023-04-30T13:26:56;22.10;88.40
13697;DHT22;6920;50.080;8.226;2023-04-30T13:29:25;22.40;88.10
13697;DHT22;6920;50.080;8.226;2023-04-30T13:31:53;22.40;87.30
13697;DHT22;6920;50.080;8.226;2023-04-30T13:34:21;22.00;87.50
13697;DHT22;6920;50.080;8.226;2023-04-30T13:36:51;22.20;88.00
13697;DHT22;6920;50.080;8.226;2023-04-30T13:39:23;22.50;86.90
13697;DHT22;6920;50.080;8.226;2023-04-30T13:41:52;22.70;86.20
13697;DHT22;6920;50.080;8.226;2023-04-30T13:44:21;22.30;85.90
13697;DHT22;6920;50.080;8.226;2023-04-30T13:49:24;22.60;86.90
13697;DHT22;6920;50.080;8.226;2023-04-30T13:51:52;22.90;85.00
13697;DHT22;6920;50.080;8.226;2023-04-30T13:56:52;22.00;86.80
13697;DHT22;6920;50.080;8.226;2023-04-30T13:59:21;21.90;88.20
13697;DHT22;6920;50.080;8.226;2023-04-30T14:01:48;22.20;87.60
13697;DHT22;6920;50.080;8.226;2023-04-30T14:04:15;21.80;87.70
13697;DHT22;6920;50.080;8.226;2023-04-30T14:06:44;21.50;88.40
13697;DHT22;6920;50.080;8.226;2023-04-30T14:09:15;21.90;87.20
13697;DHT22;6920;50.080;8.226;2023-04-30T14:11:44;21.70;87.90
13697;DHT22;6920;50.080;8.226;2023-04-30T14:14:12;21.70;87.90
13697;DHT22;6920;50.080;8.226;2023-04-30T14:16:42;22.00;86.80
13697;DHT22;6920;50.080;8.226;2023-04-30T14:19:10;21.50;88.50
13697;DHT22;6920;50.080;8.226;2023-04-30T14:21:39;22.00;88.50
13697;DHT22;6920;50.080;8.226;2023-04-30T14:24:08;22.20;86.00
13697;DHT22;6920;50.080;8.226;2023-04-30T14:26:38;22.50;86.70
13697;DHT22;6920;50.080;8.226;2023-04-30T14:29:07;22.30;86.70
13697;DHT22;6920;50.080;8.226;2023-04-30T14:31:37;22.50;85.90
13697;DHT22;6920;50.080;8.226;2023-04-30T14:34:04;21.40;87.80
13697;DHT22;6920;50.080;8.226;2023-04-30T14:36:36;21.90;86.50
13697;DHT22;6920;50.080;8.226;2023-04-30T14:39:04;21.90;86.60
13697;DHT22;6920;50.080;8.226;2023-04-30T14:41:33;21.90;87.60
13697;DHT22;6920;50.080;8.226;2023-04-30T14:44:03;21.70;88.10
13697;DHT22;6920;50.080;8.226;2023-04-30T14:46:31;21.30;88.70
13697;DHT22;6920;50.080;8.226;2023-04-30T14:49:02;21.00;89.40
13697;DHT22;6920;50.080;8.226;2023-04-30T14:51:31;21.10;89.80
13697;DHT22;6920;50.080;8.226;2023-04-30T14:54:00;21.10;89.70
13697;DHT22;6920;50.080;8.226;2023-04-30T14:56:28;21.60;90.40
13697;DHT22;6920;50.080;8.226;2023-04-30T14:58:56;21.90;88.70
13697;DHT22;6920;50.080;8.226;2023-04-30T15:01:24;21.50;89.50
13697;DHT22;6920;50.080;8.226;2023-04-30T15:03:53;21.20;89.90
13697;DHT22;6920;50.080;8.226;2023-04-30T15:06:26;21.60;88.40
13697;DHT22;6920;50.080;8.226;2023-04-30T15:08:55;21.80;87.50
13697;DHT22;6920;50.080;8.226;2023-04-30T15:11:25;21.70;88.60
13697;DHT22;6920;50.080;8.226;2023-04-30T15:13:54;21.60;88.40
13697;DHT22;6920;50.080;8.226;2023-04-30T15:16:23;22.20;88.60
13697;DHT22;6920;50.080;8.226;2023-04-30T15:18:50;21.80;87.90
13697;DHT22;6920;50.080;8.226;2023-04-30T15:21:18;21.30;88.80
13697;DHT22;6920;50.080;8.226;2023-04-30T15:23:48;21.30;88.30
13697;DHT22;6920;50.080;8.226;2023-04-30T15:26:16;21.20;88.90
13697;DHT22;6920;50.080;8.226;2023-04-30T15:28:44;21.10;88.80
13697;DHT22;6920;50.080;8.226;2023-04-30T15:31:14;21.10;88.90
13697;DHT22;6920;50.080;8.226;2023-04-30T15:36:10;21.30;89.20
13697;DHT22;6920;50.080;8.226;2023-04-30T15:38:37;21.60;89.00
13697;DHT22;6920;50.080;8.226;2023-04-30T15:41:09;21.40;88.10
13697;DHT22;6920;50.080;8.226;2023-04-30T15:43:37;21.30;89.30
13697;DHT22;6920;50.080;8.226;2023-04-30T15:46:06;21.40;88.80
13697;DHT22;6920;50.080;8.226;2023-04-30T15:51:01;21.10;89.20
13697;DHT22;6920;50.080;8.226;2023-04-30T15:53:28;21.00;89.10
13697;DHT22;6920;50.080;8.226;2023-04-30T15:55:55;20.80;89.40
13697;DHT22;6920;50.080;8.226;2023-04-30T15:58:24;20.80;89.30
13697;DHT22;6920;50.080;8.226;2023-04-30T16:00:51;20.60;89.40
13697;DHT22;6920;50.080;8.226;2023-04-30T16:03:18;20.50;90.10
13697;DHT22;6920;50.080;8.226;2023-04-30T16:05:46;20.20;90.50
13697;DHT22;6920;50.080;8.226;2023-04-30T16:08:14;20.10;90.60
13697;DHT22;6920;50.080;8.226;2023-04-30T16:10:41;20.00;91.20
13697;DHT22;6920;50.080;8.226;2023-04-30T16:13:08;20.00;90.70
13697;DHT22;6920;50.080;8.226;2023-04-30T16:15:37;19.90;90.70
13697;DHT22;6920;50.080;8.226;2023-04-30T16:18:04;19.80;90.60
13697;DHT22;6920;50.080;8.226;2023-04-30T16:20:32;19.60;90.60
13697;DHT22;6920;50.080;8.226;2023-04-30T16:22:59;19.80;90.90
13697;DHT22;6920;50.080;8.226;2023-04-30T16:25:27;19.80;90.40
13697;DHT22;6920;50.080;8.226;2023-04-30T16:27:55;19.70;91.30
13697;DHT22;6920;50.080;8.226;2023-04-30T16:30:22;19.80;91.10
13697;DHT22;6920;50.080;8.226;2023-04-30T16:32:51;19.80;90.90
13697;DHT22;6920;50.080;8.226;2023-04-30T16:35:19;19.70;91.40
13697;DHT22;6920;50.080;8.226;2023-04-30T16:37:46;19.70;91.40
13697;DHT22;6920;50.080;8.226;2023-04-30T16:40:13;19.60;91.60
13697;DHT22;6920;50.080;8.226;2023-04-30T16:42:40;19.70;91.80
13697;DHT22;6920;50.080;8.226;2023-04-30T16:45:09;19.60;91.80